Time;durP1;ratioP1;P1;durP2;ratioP2;P2;SDS_P1;SDS_P2;PMS_P1;PMS_P2;Temp;Humidity;BMP_temperature;BMP_pressure;BME280_temperature;BME280_humidity;BME280_pressure;Samples;Min_cycle;Max_cycle;Signal;HPM_P1;HPM_P2
2022/05/27 00:01:32;;;;;;;1.30;1.00;;;;;;;17.09;54.54;99274.25;5093872;28;43150;-81
2022/05/27 00:04:02;;;;;;;1.90;1.10;;;;;;;17.07;54.74;99281.53;5112292;28;42377;-80
2022/05/27 00:06:31;;;;;;;1.27;1.17;;;;;;;17.04;55.13;99276.47;5111522;28;40775;-78
2022/05/27 00:09:00;;;;;;;1.67;1.10;;;;;;;17.02;55.34;99267.72;5111420;28;41797;-80
2022/05/27 00:11:28;;;;;;;1.20;1.10;;;;;;;16.99;55.19;99267.94;5111227;28;43185;-79
2022/05/27 00:13:55;;;;;;;1.70;1.20;;;;;;;16.87;55.26;99259.97;5111156;28;42285;-77
2022/05/27 00:16:23;;;;;;;2.10;1.17;;;;;;;16.94;55.13;99264.81;5112136;28;39803;-79
2022/05/27 00:18:50;;;;;;;1.47;1.37;;;;;;;16.88;55.67;99264.34;5094037;28;40694;-77
2022/05/27 00:21:19;;;;;;;2.13;1.00;;;;;;;16.88;55.62;99267.00;5094302;28;42328;-76
2022/05/27 00:23:46;;;;;;;1.10;1.00;;;;;;;16.85;56.28;99263.72;5111070;28;42880;-77
2022/05/27 00:26:15;;;;;;;2.90;1.23;;;;;;;16.82;55.79;99272.84;5094120;28;42127;-77
2022/05/27 00:28:43;;;;;;;2.63;1.50;;;;;;;16.78;55.71;99260.72;5112548;27;41928;-79
2022/05/27 00:31:10;;;;;;;2.10;1.03;;;;;;;16.66;56.27;99248.34;5114135;28;41658;-76
2022/05/27 00:33:40;;;;;;;4.73;1.40;;;;;;;16.72;56.13;99258.53;5115264;28;42389;-75
2022/05/27 00:36:09;;;;;;;2.70;1.33;;;;;;;16.70;56.20;99257.78;5115681;28;39844;-78
2022/05/27 00:38:37;;;;;;;1.00;0.90;;;;;;;16.66;56.57;99251.03;5113948;28;40634;-82
2022/05/27 00:41:05;;;;;;;1.60;1.20;;;;;;;16.65;56.45;99243.13;5115488;28;43630;-77
2022/05/27 00:43:34;;;;;;;2.73;1.30;;;;;;;16.57;56.40;99245.53;5113937;28;41213;-75
2022/05/27 00:46:05;;;;;;;2.77;1.57;;;;;;;16.49;57.15;99238.13;5097088;28;38730;-78
2022/05/27 00:48:35;;;;;;;2.53;1.33;;;;;;;16.53;57.02;99244.94;5114160;28;42254;-74
2022/05/27 00:51:05;;;;;;;2.27;1.40;;;;;;;16.51;57.04;99237.03;5114153;28;43865;-77
2022/05/27 00:53:36;;;;;;;2.27;1.20;;;;;;;16.41;57.46;99229.88;5096866;28;42285;-80
2022/05/27 00:56:08;;;;;;;1.43;1.30;;;;;;;16.35;57.54;99223.19;5112425;28;40060;-74
2022/05/27 00:58:41;;;;;;;1.20;1.10;;;;;;;16.42;57.82;99232.44;5113812;28;40796;-76
2022/05/27 01:01:09;;;;;;;1.97;1.30;;;;;;;16.41;57.62;99229.88;5110987;28;42701;-80
2022/05/27 01:03:37;;;;;;;2.33;1.30;;;;;;;16.35;57.87;99236.56;5114837;28;42600;-75
2022/05/27 01:06:04;;;;;;;1.17;1.07;;;;;;;16.33;57.95;99232.28;5114038;28;39024;-80
2022/05/27 01:08:32;;;;;;;1.70;1.10;;;;;;;16.31;57.78;99228.91;5114508;28;41991;-78
2022/05/27 01:11:14;;;;;;;1.40;1.10;;;;;;;16.29;57.98;99239.72;5115001;28;43766;-80
2022/05/27 01:13:58;;;;;;;3.20;1.10;;;;;;;16.27;58.72;99238.16;5113773;28;41418;-81
2022/05/27 01:16:39;;;;;;;1.80;1.10;;;;;;;16.18;58.72;99226.38;5113783;28;40789;-79
2022/05/27 01:22:41;;;;;;;1.03;0.90;;;;;;;16.17;58.80;99228.19;5114863;28;43782;-78
2022/05/27 01:25:32;;;;;;;2.03;1.33;;;;;;;16.15;58.79;99235.47;5096752;28;41312;-79
2022/05/27 01:28:21;;;;;;;1.40;1.20;;;;;;;16.12;59.27;99227.69;5111963;28;40942;-75
2022/05/27 01:30:53;;;;;;;2.30;1.30;;;;;;;16.09;59.11;99225.25;5096692;28;40816;-77
2022/05/27 01:33:35;;;;;;;2.43;1.33;;;;;;;16.05;59.26;99223.81;5112720;28;42185;-75
2022/05/27 01:36:10;;;;;;;1.67;1.30;;;;;;;16.02;59.18;99224.06;5111805;28;42926;-81
2022/05/27 01:38:45;;;;;;;1.83;1.30;;;;;;;16.01;59.37;99226.84;5111750;27;39881;-74
2022/05/27 01:41:22;;;;;;;1.70;1.30;;;;;;;15.92;59.54;99212.41;5110496;28;42785;-76
2022/05/27 01:43:53;;;;;;;1.33;1.23;;;;;;;15.93;59.49;99215.94;5095950;28;43804;-77
2022/05/27 01:46:26;;;;;;;1.83;1.30;;;;;;;15.90;59.38;99225.03;5110310;28;42379;-83
2022/05/27 01:49:03;;;;;;;1.67;1.30;;;;;;;15.90;59.70;99214.34;5096161;28;40045;-81
2022/05/27 01:51:35;;;;;;;4.43;1.60;;;;;;;15.86;59.77;99218.22;5113300;28;42100;-80
2022/05/27 01:54:10;;;;;;;1.20;1.10;;;;;;;15.86;60.17;99222.69;5112447;28;42426;-81
2022/05/27 01:56:43;;;;;;;1.93;1.23;;;;;;;15.82;60.42;99210.56;5113357;28;40861;-81
2022/05/27 01:59:16;;;;;;;1.43;1.33;;;;;;;15.79;60.40;99211.66;5113829;28;39890;-75
2022/05/27 02:01:50;;;;;;;2.10;1.40;;;;;;;15.76;60.76;99201.22;5112711;28;41825;-75
2022/05/27 02:04:23;;;;;;;2.13;1.20;;;;;;;15.74;60.89;99208.50;5113384;28;43791;-76
2022/05/27 02:06:54;;;;;;;1.40;1.30;;;;;;;15.70;60.47;99204.38;5111119;28;43041;-81
2022/05/27 02:09:27;;;;;;;2.60;1.60;;;;;;;15.66;60.76;99211.78;5114386;28;39743;-77
2022/05/27 02:11:59;;;;;;;1.33;1.23;;;;;;;15.64;61.05;99205.69;5113299;28;40393;-74
2022/05/27 02:14:39;;;;;;;1.67;1.17;;;;;;;15.61;60.64;99203.25;5113828;28;43609;-80
2022/05/27 02:17:12;;;;;;;1.13;1.03;;;;;;;15.56;60.76;99200.09;5109711;28;42346;-79
2022/05/27 02:19:45;;;;;;;2.37;1.20;;;;;;;15.52;60.57;99205.75;5113263;28;40451;-80
2022/05/27 02:22:17;;;;;;;1.87;1.20;;;;;;;15.50;61.01;99205.88;5112715;28;40601;-76
2022/05/27 02:24:50;;;;;;;2.13;1.30;;;;;;;15.47;60.84;99206.09;5112688;28;45122;-81
2022/05/27 02:27:22;;;;;;;1.93;1.37;;;;;;;15.44;61.07;99204.53;5112797;28;41891;-77
2022/05/27 02:29:54;;;;;;;2.03;1.10;;;;;;;15.42;61.36;99200.28;5110010;28;39773;-80
2022/05/27 02:32:28;;;;;;;1.30;1.10;;;;;;;15.37;61.30;99187.28;5112387;28;41639;-80
2022/05/27 02:35:07;;;;;;;1.40;1.20;;;;;;;15.40;61.71;99192.41;5109788;28;43444;-81
2022/05/27 02:37:39;;;;;;;3.87;1.70;;;;;;;15.38;61.92;99197.00;5112450;28;42195;-77
2022/05/27 02:40:11;;;;;;;1.33;1.00;;;;;;;15.38;62.42;99209.47;5095980;28;39083;-79
2022/05/27 02:42:55;;;;;;;1.60;1.10;;;;;;;15.35;62.14;99199.88;5095770;28;40933;-81
2022/05/27 02:45:32;;;;;;;1.83;1.23;;;;;;;15.34;62.14;99195.50;5112594;28;42970;-81
2022/05/27 02:48:10;;;;;;;2.20;1.10;;;;;;;15.33;62.79;99188.47;5111459;28;42279;-76
2022/05/27 02:50:44;;;;;;;1.47;1.27;;;;;;;15.33;62.45;99204.50;5111811;27;39305;-80
2022/05/27 02:53:21;;;;;;;2.33;1.60;;;;;;;15.20;63.22;99179.75;5094840;28;40226;-78
2022/05/27 02:56:05;;;;;;;2.13;1.70;;;;;;;15.30;63.20;99199.41;5112412;28;43940;-80
2022/05/27 02:58:33;;;;;;;2.07;1.40;;;;;;;15.27;63.00;99199.63;5110937;28;41477;-76
2022/05/27 03:01:01;;;;;;;1.80;1.20;;;;;;;15.18;63.07;99184.34;5113304;28;40910;-75
2022/05/27 03:03:30;;;;;;;2.27;1.33;;;;;;;15.26;63.36;99187.25;5112016;28;40658;-77
2022/05/27 03:06:12;;;;;;;1.77;1.43;;;;;;;15.25;63.59;99177.56;5113359;28;43596;-81
2022/05/27 03:08:50;;;;;;;2.00;1.50;;;;;;;15.25;63.77;99180.22;5112071;28;41674;-77
2022/05/27 03:11:26;;;;;;;1.70;1.20;;;;;;;15.24;63.91;99189.19;5095144;28;39000;-78
2022/05/27 03:14:29;;;;;;;2.93;1.30;;;;;;;15.22;63.61;99183.13;5111364;28;41757;-75
2022/05/27 03:17:12;;;;;;;1.97;1.50;;;;;;;15.21;63.46;99184.06;5044274;28;43698;-80
2022/05/27 03:19:52;;;;;;;1.93;1.37;;;;;;;15.13;64.09;99162.47;5110122;28;42226;-80
2022/05/27 03:22:41;;;;;;;5.33;1.63;;;;;;;15.15;64.05;99179.22;5110022;28;39779;-80
2022/05/27 03:25:19;;;;;;;1.60;1.50;;;;;;;15.13;64.56;99183.81;5113378;28;41891;-79
2022/05/27 03:27:53;;;;;;;1.57;1.37;;;;;;;15.11;64.59;99167.06;5111008;28;41656;-79
2022/05/27 03:30:24;;;;;;;3.50;1.70;;;;;;;15.10;64.60;99168.03;5095059;28;42508;-78
2022/05/27 03:32:57;;;;;;;1.50;1.40;;;;;;;15.09;64.41;99174.34;5094581;28;40177;-75
2022/05/27 03:35:34;;;;;;;3.13;1.37;;;;;;;15.09;64.46;99171.66;5112367;28;41954;-75
2022/05/27 03:38:07;;;;;;;2.00;1.53;;;;;;;15.09;64.42;99174.34;5094679;28;43031;-79
2022/05/27 03:40:42;;;;;;;1.50;1.20;;;;;;;15.04;64.54;99166.72;5095340;28;42722;-75
2022/05/27 03:43:11;;;;;;;1.93;1.60;;;;;;;15.05;64.69;99175.56;5111959;28;39179;-81
2022/05/27 03:45:49;;;;;;;1.87;1.70;;;;;;;15.04;65.13;99176.53;5112176;28;42642;-76
2022/05/27 03:48:18;;;;;;;1.87;1.40;;;;;;;15.04;64.75;99172.03;5111163;28;43976;-78
2022/05/27 03:50:49;;;;;;;2.20;1.20;;;;;;;15.06;65.07;99179.94;5113177;28;42087;-75
2022/05/27 03:53:18;;;;;;;3.03;1.53;;;;;;;15.07;64.77;99178.97;5116447;28;39704;-74
2022/05/27 03:55:46;;;;;;;2.80;1.60;;;;;;;15.10;64.76;99182.22;5121877;28;43758;-74
2022/05/27 03:58:14;;;;;;;1.30;1.20;;;;;;;15.10;65.13;99176.03;5121195;28;43410;-74
2022/05/27 04:00:43;;;;;;;2.43;1.50;;;;;;;15.15;65.11;99183.72;5121791;28;43370;-74
2022/05/27 04:03:12;;;;;;;1.47;1.37;;;;;;;15.16;64.99;99185.41;5125428;27;40360;-74
2022/05/27 04:05:40;;;;;;;1.67;1.47;;;;;;;15.25;64.89;99190.03;5126514;28;41639;-75
2022/05/27 04:08:10;;;;;;;2.93;1.40;;;;;;;15.31;64.83;99195.78;5123768;28;43211;-79
2022/05/27 04:10:38;;;;;;;1.63;1.50;;;;;;;15.31;64.75;99185.09;5115094;28;41356;-76
2022/05/27 04:13:05;;;;;;;1.77;1.30;;;;;;;15.44;64.40;99201.88;5114777;28;40951;-78
2022/05/27 04:15:33;;;;;;;1.57;1.40;;;;;;;15.50;64.38;99203.19;5097714;28;41876;-78
2022/05/27 04:18:00;;;;;;;1.63;1.13;;;;;;;15.53;64.53;99194.13;5097333;28;42819;-81
2022/05/27 04:20:28;;;;;;;1.90;1.30;;;;;;;15.67;63.93;99209.94;5114769;28;41177;-76
2022/05/27 04:22:56;;;;;;;2.10;1.63;;;;;;;15.75;63.70;99210.19;5114770;28;39915;-76
2022/05/27 04:25:25;;;;;;;1.57;1.47;;;;;;;15.93;63.56;99214.09;5097423;28;41858;-81
2022/05/27 04:27:53;;;;;;;1.73;1.40;;;;;;;16.13;63.26;99205.34;5113535;28;45202;-76
2022/05/27 04:30:21;;;;;;;2.70;1.50;;;;;;;16.34;63.01;99210.78;5111358;28;43082;-77
2022/05/27 04:32:48;;;;;;;1.83;1.60;;;;;;;16.49;62.78;99212.22;5114124;28;40977;-74
2022/05/27 04:35:16;;;;;;;1.40;1.30;;;;;;;16.60;62.09;99213.19;5114595;28;41720;-77
2022/05/27 04:37:43;;;;;;;1.73;1.20;;;;;;;16.68;61.77;99227.69;5115376;28;42859;-77
2022/05/27 04:40:12;;;;;;;2.60;1.27;;;;;;;16.77;61.95;99221.56;5114326;28;41105;-79
2022/05/27 04:42:41;;;;;;;1.70;1.50;;;;;;;16.87;61.40;99221.66;5114099;28;39715;-77
2022/05/27 04:45:10;;;;;;;1.87;1.47;;;;;;;16.96;61.21;99215.53;5115389;28;42714;-76
2022/05/27 04:47:38;;;;;;;1.90;1.50;;;;;;;17.05;61.03;99214.78;5114244;28;43831;-77
2022/05/27 04:50:08;;;;;;;2.20;1.60;;;;;;;17.15;61.22;99220.22;5114424;28;42406;-79
2022/05/27 04:52:36;;;;;;;3.33;1.70;;;;;;;17.27;61.08;99229.03;5115207;28;40503;-78
2022/05/27 04:55:08;;;;;;;2.03;1.40;;;;;;;17.35;60.80;99231.91;5115409;28;41772;-80
2022/05/27 04:57:39;;;;;;;2.60;1.47;;;;;;;17.41;60.53;99237.63;5111186;28;42583;-80
2022/05/27 05:00:12;;;;;;;2.77;1.93;;;;;;;17.50;60.18;99236.81;5112014;28;42140;-75
2022/05/27 05:02:41;;;;;;;1.93;1.37;;;;;;;17.53;59.76;99228.53;5111882;28;39542;-78
2022/05/27 05:05:09;;;;;;;1.93;1.50;;;;;;;17.67;59.66;99231.91;5113530;28;42396;-79
2022/05/27 05:07:40;;;;;;;1.60;1.50;;;;;;;17.78;59.71;99234.50;5113855;28;43802;-76
2022/05/27 05:10:09;;;;;;;2.10;1.37;;;;;;;17.90;59.19;99233.44;5114036;28;41167;-77
2022/05/27 05:12:37;;;;;;;1.97;1.70;;;;;;;17.99;58.81;99227.28;5113803;28;39045;-77
2022/05/27 05:15:05;;;;;;;1.53;1.20;;;;;;;18.05;59.11;99231.28;5096126;28;40848;-81
2022/05/27 05:17:34;;;;;;;2.33;1.70;;;;;;;18.12;58.99;99233.28;5114645;28;43710;-79
2022/05/27 05:20:01;;;;;;;1.97;1.50;;;;;;;18.12;58.74;99233.28;5096481;28;42151;-77
2022/05/27 05:22:29;;;;;;;2.03;1.60;;;;;;;18.21;58.98;99242.34;5113450;28;41981;-77
2022/05/27 05:24:56;;;;;;;1.80;1.70;;;;;;;18.25;58.53;99247.31;5114893;28;42359;-81
2022/05/27 05:27:26;;;;;;;3.83;1.97;;;;;;;18.28;58.69;99238.16;5114301;28;43770;-78
2022/05/27 05:29:55;;;;;;;2.67;1.93;;;;;;;18.31;58.73;99245.91;5110428;28;42169;-78
2022/05/27 05:32:23;;;;;;;1.60;1.50;;;;;;;18.32;58.62;99239.56;5114373;28;39905;-76
2022/05/27 05:34:52;;;;;;;1.70;1.37;;;;;;;18.37;58.44;99236.47;5113404;28;41406;-84
2022/05/27 05:37:19;;;;;;;3.93;2.00;;;;;;;18.40;58.41;99220.13;5114507;28;43514;-77
2022/05/27 05:39:47;;;;;;;1.70;1.60;;;;;;;18.46;57.93;99219.56;5096471;28;42236;-83
2022/05/27 05:42:14;;;;;;;2.50;1.70;;;;;;;18.52;57.58;99224.38;5114417;28;40325;-77
2022/05/27 05:44:42;;;;;;;2.67;1.70;;;;;;;18.74;57.54;99229.56;5113274;28;41727;-74
2022/05/27 05:47:10;;;;;;;4.87;1.87;;;;;;;18.84;57.32;99218.81;5113314;28;43458;-79
2022/05/27 05:49:38;;;;;;;1.53;1.43;;;;;;;19.03;56.67;99229.59;5113118;28;42321;-81
2022/05/27 05:52:08;;;;;;;1.67;1.33;;;;;;;19.10;56.60;99213.78;5113606;28;39860;-80
2022/05/27 05:54:35;;;;;;;3.03;1.70;;;;;;;19.29;56.57;99224.50;5113011;28;40686;-80
2022/05/27 05:57:04;;;;;;;1.50;1.40;;;;;;;19.41;55.88;99223.34;5114489;28;43663;-80
2022/05/27 05:59:34;;;;;;;1.47;1.37;;;;;;;19.54;55.19;99234.69;5095540;28;41190;-76
2022/05/27 06:02:02;;;;;;;4.80;1.73;;;;;;;19.61;55.11;99225.06;5112645;28;40246;-79
2022/05/27 06:04:30;;;;;;;2.17;1.70;;;;;;;19.66;55.18;99225.47;5112948;28;41914;-79
2022/05/27 06:06:58;;;;;;;2.10;2.00;;;;;;;19.68;54.88;99231.56;5113272;28;42653;-79
2022/05/27 06:09:27;;;;;;;1.50;1.40;;;;;;;19.67;54.88;99227.16;5113968;28;42302;-79
2022/05/27 06:11:55;;;;;;;1.90;1.53;;;;;;;19.59;54.84;99221.69;5114237;28;40420;-76
2022/05/27 06:14:23;;;;;;;1.73;1.50;;;;;;;19.62;54.59;99226.78;5112613;28;39962;-74
2022/05/27 06:16:51;;;;;;;1.77;1.40;;;;;;;19.66;54.97;99225.47;5113767;28;43614;-83
2022/05/27 06:19:19;;;;;;;3.17;1.90;;;;;;;19.71;54.72;99225.06;5095226;28;41580;-77
2022/05/27 06:21:47;;;;;;;2.00;1.80;;;;;;;19.72;54.90;99224.06;5113935;28;40115;-79
2022/05/27 06:24:16;;;;;;;2.93;1.60;;;;;;;19.71;54.57;99225.91;5112118;27;41793;-78
2022/05/27 06:26:45;;;;;;;3.37;2.40;;;;;;;19.77;54.21;99203.00;5112023;28;41693;-77
2022/05/27 06:34:42;;;;;;;2.73;1.83;;;;;;;20.47;52.67;99216.88;5112755;28;41609;-80
2022/05/27 06:37:15;;;;;;;2.17;1.50;;;;;;;20.58;52.29;99214.84;5112426;28;42484;-76
2022/05/27 06:39:43;;;;;;;2.03;1.90;;;;;;;20.76;51.87;99225.66;5112068;28;42310;-77
2022/05/27 06:42:15;;;;;;;4.20;2.03;;;;;;;20.87;51.68;99220.06;5112234;28;39927;-76
2022/05/27 06:44:43;;;;;;;1.87;1.73;;;;;;;20.93;51.40;99197.88;5086080;28;40753;-78
2022/05/27 06:47:13;;;;;;;3.33;1.70;;;;;;;21.52;50.76;99242.22;5111005;28;43780;-77
2022/05/27 06:49:43;;;;;;;2.30;1.47;;;;;;;21.79;50.31;99250.19;5111529;28;43038;-77
2022/05/27 06:52:11;;;;;;;2.43;1.90;;;;;;;22.04;49.66;99253.94;5111872;28;40964;-78
2022/05/27 06:54:39;;;;;;;2.03;1.73;;;;;;;22.17;49.37;99258.91;5088881;28;42283;-78
2022/05/27 06:57:08;;;;;;;1.70;1.60;;;;;;;22.18;49.17;99255.19;5094321;28;43604;-76
2022/05/27 06:59:37;;;;;;;2.40;1.80;;;;;;;22.18;49.29;99260.59;5111161;28;43442;-76
2022/05/27 07:02:06;;;;;;;4.33;1.60;;;;;;;22.25;48.88;99267.06;5094613;28;40040;-75
2022/05/27 07:04:34;;;;;;;2.37;1.53;;;;;;;22.41;48.46;99266.28;5110802;28;41513;-77
2022/05/27 07:07:04;;;;;;;2.43;1.43;;;;;;;22.56;48.23;99273.63;5112877;28;43723;-76
2022/05/27 07:09:35;;;;;;;2.13;1.63;;;;;;;22.62;47.78;99274.00;5110545;28;41628;-75
2022/05/27 07:12:06;;;;;;;2.57;1.67;;;;;;;22.74;47.97;99278.09;5108622;28;39986;-75
2022/05/27 07:14:34;;;;;;;1.77;1.63;;;;;;;22.79;47.45;99271.22;5110574;28;42755;-80
2022/05/27 07:17:04;;;;;;;3.83;1.60;;;;;;;22.97;47.43;99283.78;5111726;28;42675;-76
2022/05/27 07:19:32;;;;;;;2.63;1.80;;;;;;;23.15;46.89;99276.38;5110822;28;42380;-81
2022/05/27 07:21:59;;;;;;;1.60;1.50;;;;;;;23.40;46.28;99291.63;5111203;28;40877;-77
2022/05/27 07:24:28;;;;;;;1.80;1.70;;;;;;;23.63;46.09;99270.22;5110710;28;40683;-82
2022/05/27 07:26:56;;;;;;;1.83;1.57;;;;;;;23.81;45.70;99265.47;5111764;28;43122;-76
2022/05/27 07:29:23;;;;;;;1.67;1.53;;;;;;;23.92;45.04;99272.41;5093724;28;41152;-76
2022/05/27 07:31:51;;;;;;;3.00;1.63;;;;;;;24.04;44.53;99289.13;5112609;28;40163;-82
2022/05/27 07:34:20;;;;;;;1.27;1.17;;;;;;;24.31;45.29;99275.25;5112175;28;41630;-74
2022/05/27 07:36:48;;;;;;;2.17;1.40;;;;;;;24.54;44.90;99276.19;5110896;28;42909;-75
2022/05/27 07:39:16;;;;;;;2.13;1.23;;;;;;;24.57;43.74;99285.81;5110538;28;41154;-78
2022/05/27 07:41:43;;;;;;;1.97;1.63;;;;;;;24.42;44.14;99285.69;5111127;28;41591;-75
2022/05/27 07:44:11;;;;;;;2.73;1.60;;;;;;;24.12;44.06;99289.09;5110567;28;40852;-76
2022/05/27 07:46:39;;;;;;;1.47;1.27;;;;;;;23.71;44.84;99282.91;5110345;28;42660;-77
2022/05/27 07:49:08;;;;;;;2.00;1.80;;;;;;;23.27;45.48;99286.69;5110835;28;42361;-76
2022/05/27 07:51:36;;;;;;;1.87;1.30;;;;;;;22.90;46.45;99288.97;5112006;28;40444;-73
2022/05/27 07:54:04;;;;;;;1.77;1.40;;;;;;;22.49;46.82;99266.34;5112325;28;42409;-77
2022/05/27 07:56:32;;;;;;;1.93;1.37;;;;;;;22.31;47.87;99274.50;5111687;28;42459;-74
2022/05/27 07:58:59;;;;;;;2.33;1.50;;;;;;;22.08;48.92;99259.88;5093690;28;42347;-75
2022/05/27 08:01:27;;;;;;;1.43;1.00;;;;;;;21.94;48.36;99261.25;5111157;28;39946;-74
2022/05/27 08:03:54;;;;;;;1.37;1.27;;;;;;;21.74;48.40;99247.13;5110631;28;41783;-77
2022/05/27 08:06:22;;;;;;;0.97;0.97;;;;;;;21.79;49.02;99260.97;5110330;28;42997;-74
2022/05/27 08:08:51;;;;;;;1.37;1.27;;;;;;;21.74;48.52;99257.06;5111008;28;43229;-77
2022/05/27 08:11:18;;;;;;;1.90;1.30;;;;;;;21.74;48.76;99266.00;5110427;28;39158;-80
2022/05/27 08:13:46;;;;;;;2.30;1.30;;;;;;;21.81;48.77;99263.50;5111010;28;42800;-80
2022/05/27 08:16:14;;;;;;;1.63;1.30;;;;;;;21.85;48.71;99271.16;5110657;28;42760;-75
2022/05/27 08:18:42;;;;;;;1.07;1.03;;;;;;;21.83;48.62;99270.47;5111912;28;42412;-76
2022/05/27 08:21:09;;;;;;;1.27;1.27;;;;;;;21.74;48.65;99274.09;5093012;28;38406;-73
2022/05/27 08:23:37;;;;;;;1.90;1.10;;;;;;;21.63;49.05;99268.97;5093230;28;42185;-77
2022/05/27 08:26:06;;;;;;;4.50;1.30;;;;;;;21.52;49.27;99261.94;5111308;28;43494;-79
2022/05/27 08:28:33;;;;;;;2.07;1.03;;;;;;;21.38;49.54;99261.66;5092235;28;41298;-76
2022/05/27 08:31:01;;;;;;;1.47;1.00;;;;;;;21.22;50.13;99261.50;5109786;28;41033;-76
2022/05/27 08:38:00;;;;;;;1.77;1.17;;;;;;;21.07;50.56;99251.22;5110057;28;40539;-73
2022/05/27 08:39:09;;;;;;;1.97;1.40;;;;;;;21.21;50.77;99249.88;5109120;28;42347;-82
2022/05/27 08:41:53;;;;;;;1.80;1.10;;;;;;;21.20;50.89;99258.09;5110252;28;39913;-76
2022/05/27 08:44:34;;;;;;;1.37;1.13;;;;;;;21.19;50.24;99261.78;5093104;28;42415;-80
2022/05/27 08:47:13;;;;;;;2.17;1.50;;;;;;;21.18;50.43;99255.53;5108856;28;42613;-80
2022/05/27 08:49:47;;;;;;;1.60;1.37;;;;;;;21.23;50.26;99264.03;5110414;28;43130;-81
2022/05/27 08:52:21;;;;;;;1.90;1.70;;;;;;;21.25;50.19;99263.88;5114365;28;38759;-83
2022/05/27 08:54:54;;;;;;;1.60;1.50;;;;;;;21.22;50.07;99272.28;5110254;28;41797;-76
2022/05/27 09:00:14;;;;;;;2.50;1.30;;;;;;;21.02;50.47;99256.19;5113624;28;42233;-74
2022/05/27 09:02:48;;;;;;;2.23;1.30;;;;;;;20.92;50.49;99266.19;5112453;28;39802;-75
2022/05/27 09:05:21;;;;;;;1.67;1.57;;;;;;;20.80;50.76;99251.25;5109603;28;42691;-74
2022/05/27 09:07:52;;;;;;;1.80;1.70;;;;;;;20.83;50.75;99261.72;5110664;28;43504;-74
2022/05/27 09:10:22;;;;;;;1.63;1.53;;;;;;;20.83;51.14;99261.72;5095875;28;41265;-75
2022/05/27 09:13:19;;;;;;;2.10;1.37;;;;;;;20.85;50.69;99259.72;5113061;28;40015;-79
2022/05/27 09:15:54;;;;;;;1.90;1.60;;;;;;;20.98;51.60;99254.84;5111918;28;40593;-75
2022/05/27 09:18:29;;;;;;;1.73;1.63;;;;;;;21.20;51.48;99248.19;5111578;28;42794;-74
2022/05/27 09:21:18;;;;;;;3.63;1.70;;;;;;;21.32;50.30;99259.56;5110381;28;43214;-73
2022/05/27 09:24:04;;;;;;;3.50;1.50;;;;;;;21.42;50.54;99260.31;5112648;28;41681;-74
2022/05/27 09:26:39;;;;;;;1.83;1.57;;;;;;;21.54;50.47;99267.19;5110860;28;42793;-77
2022/05/27 09:29:24;;;;;;;1.97;1.50;;;;;;;21.45;50.32;99268.13;5095217;28;42926;-76
2022/05/27 09:31:57;;;;;;;2.20;1.33;;;;;;;21.38;50.39;99261.66;5111006;28;43027;-80
2022/05/27 09:34:29;;;;;;;3.23;1.50;;;;;;;21.32;50.58;99251.47;5113056;28;39694;-78
2022/05/27 09:37:01;;;;;;;1.70;1.60;;;;;;;21.36;50.44;99253.72;5110221;28;42355;-75
2022/05/27 09:39:29;;;;;;;2.73;1.53;;;;;;;21.54;51.38;99256.41;5095019;28;41792;-79
2022/05/27 09:42:06;;;;;;;1.67;1.57;;;;;;;21.60;50.42;99266.56;5114182;28;43234;-78
2022/05/27 09:44:39;;;;;;;3.47;1.90;;;;;;;21.80;50.36;99262.66;5112677;28;39904;-75
2022/05/27 09:47:07;;;;;;;1.70;1.60;;;;;;;21.98;49.71;99269.88;5112089;28;41586;-74
2022/05/27 09:49:36;;;;;;;1.70;1.60;;;;;;;22.12;49.00;99288.22;5113557;28;43838;-74
2022/05/27 09:52:05;;;;;;;1.57;1.43;;;;;;;22.25;48.54;99285.94;5095369;28;40625;-74
2022/05/27 09:54:39;;;;;;;1.87;1.57;;;;;;;22.34;48.24;99282.28;5113132;28;40006;-77
2022/05/27 09:57:22;;;;;;;2.57;2.07;;;;;;;22.39;47.76;99274.53;5095754;28;40492;-81
2022/05/27 09:59:56;;;;;;;2.83;2.03;;;;;;;22.50;47.70;99282.34;5108795;27;44045;-76
2022/05/27 10:02:31;;;;;;;1.83;1.50;;;;;;;22.54;47.91;99288.28;5112438;28;42730;-77
2022/05/27 10:05:00;;;;;;;2.13;1.80;;;;;;;22.53;47.87;99292.84;5109065;28;39853;-75
2022/05/27 10:07:33;;;;;;;2.23;1.70;;;;;;;22.33;47.11;99279.75;5112395;28;42980;-76
2022/05/27 10:10:19;;;;;;;3.47;1.60;;;;;;;22.23;48.58;99269.06;5109087;28;42707;-76
2022/05/27 10:12:47;;;;;;;1.93;1.50;;;;;;;22.11;48.30;99273.03;5109812;28;42215;-77
2022/05/27 10:15:32;;;;;;;2.20;1.97;;;;;;;21.96;48.14;99285.38;5111592;28;41306;-77
2022/05/27 10:18:17;;;;;;;2.73;1.83;;;;;;;21.77;48.78;99273.75;5108323;28;41799;-75
2022/05/27 10:20:51;;;;;;;2.07;1.87;;;;;;;21.65;49.33;99268.78;5111741;28;41813;-79
2022/05/27 10:23:24;;;;;;;1.90;1.80;;;;;;;21.45;49.42;99266.25;5109816;28;42231;-83
2022/05/27 10:25:52;;;;;;;4.27;1.93;;;;;;;21.34;49.42;99266.50;5109210;28;40620;-72
2022/05/27 10:28:27;;;;;;;2.57;1.90;;;;;;;21.23;49.58;99269.44;5110929;28;41765;-77
2022/05/27 10:30:58;;;;;;;1.90;1.80;;;;;;;21.20;50.35;99260.78;5110266;28;41622;-76
2022/05/27 10:33:39;;;;;;;1.77;1.67;;;;;;;21.30;50.65;99258.88;5109281;28;42192;-74
2022/05/27 10:36:36;;;;;;;3.00;2.07;;;;;;;21.36;50.32;99247.50;5107569;28;39915;-77
2022/05/27 10:39:06;;;;;;;2.73;2.10;;;;;;;21.54;49.64;99263.63;5106466;28;42801;-76
2022/05/27 10:41:51;;;;;;;1.93;1.80;;;;;;;21.90;49.34;99254.47;5111480;28;43433;-79
2022/05/27 10:44:29;;;;;;;2.07;1.90;;;;;;;22.20;48.73;99263.97;5092145;28;41604;-78
2022/05/27 10:47:00;;;;;;;2.43;1.70;;;;;;;22.49;47.98;99259.09;5109934;28;39023;-75
2022/05/27 10:49:45;;;;;;;1.97;1.87;;;;;;;22.75;47.92;99269.78;5111363;28;41506;-75
2022/05/27 10:52:27;;;;;;;2.07;1.90;;;;;;;22.66;47.95;99261.84;5104960;28;42716;-79
2022/05/27 10:55:08;;;;;;;3.53;2.20;;;;;;;22.70;47.80;99274.00;5107943;28;43053;-76
2022/05/27 11:04:23;;;;;;;1.80;1.70;;;;;;;23.57;46.56;99249.25;5107450;28;42699;-77
2022/05/27 11:07:09;;;;;;;2.23;1.57;;;;;;;23.80;46.53;99250.25;5062286;28;41220;-74
2022/05/27 11:09:52;;;;;;;1.83;1.70;;;;;;;23.75;45.99;99247.22;5089215;28;39778;-76
2022/05/27 11:15:10;;;;;;;2.53;1.93;;;;;;;23.75;45.44;99247.22;5090628;28;40968;-75
2022/05/27 11:15:34;;;;;;;1.97;1.80;;;;;;;23.76;45.33;99238.09;5090475;28;42911;-77
2022/05/27 11:18:12;;;;;;;1.70;1.60;;;;;;;24.57;45.28;99243.34;5109188;28;42494;-75
2022/05/27 11:21:15;;;;;;;1.70;1.60;;;;;;;25.50;42.88;99250.59;5090146;28;38925;-77
2022/05/27 11:23:59;;;;;;;1.83;1.60;;;;;;;25.94;41.78;99261.63;5105695;28;42104;-76
2022/05/27 11:26:36;;;;;;;2.07;1.60;;;;;;;26.67;41.33;99260.84;5109427;28;42184;-76
2022/05/27 11:29:17;;;;;;;1.60;1.50;;;;;;;26.90;40.06;99264.28;5106818;28;42287;-75
2022/05/27 11:31:54;;;;;;;1.57;1.47;;;;;;;26.97;39.54;99262.50;5105442;28;39351;-78
2022/05/27 11:34:28;;;;;;;1.50;1.40;;;;;;;27.18;39.67;99264.44;5110016;28;20218;-76
2022/05/27 11:37:16;;;;;;;1.50;1.40;;;;;;;27.19;39.64;99266.13;5109490;28;42960;-75
2022/05/27 11:40:03;;;;;;;1.30;1.20;;;;;;;26.90;38.78;99263.44;5102549;28;42193;-76
2022/05/27 11:42:57;;;;;;;1.60;1.20;;;;;;;26.37;39.44;99260.00;5093051;28;39993;-78
2022/05/27 11:45:28;;;;;;;2.23;1.40;;;;;;;26.17;39.75;99258.84;5094729;28;42761;-79
2022/05/27 11:48:02;;;;;;;1.30;1.20;;;;;;;26.25;39.56;99256.03;5110071;28;43983;-77
2022/05/27 11:51:07;;;;;;;1.63;1.27;;;;;;;26.48;41.05;99252.22;5087342;28;42147;-76
2022/05/27 11:53:52;;;;;;;3.13;1.17;;;;;;;27.01;38.71;99258.38;5093063;28;38927;-78
2022/05/27 11:56:31;;;;;;;1.40;1.30;;;;;;;27.18;38.37;99226.38;5105019;28;41720;-80
2022/05/27 11:59:02;;;;;;;1.43;1.20;;;;;;;27.62;37.40;99272.44;5109733;28;43800;-74
2022/05/27 12:01:36;;;;;;;1.40;1.30;;;;;;;28.73;35.92;99277.06;5110119;28;41968;-75
2022/05/27 12:04:12;;;;;;;1.57;1.47;;;;;;;28.37;35.63;99293.63;5109530;28;41848;-76
2022/05/27 12:06:47;;;;;;;2.47;1.63;;;;;;;27.82;36.59;99280.78;5108821;28;42821;-75
2022/05/27 12:09:25;;;;;;;1.40;1.30;;;;;;;27.33;37.46;99283.41;5109897;28;42736;-75
2022/05/27 12:11:58;;;;;;;1.77;1.30;;;;;;;27.25;37.75;99264.50;5094138;28;41200;-80
2022/05/27 12:14:32;;;;;;;2.57;1.50;;;;;;;26.96;38.66;99270.84;5093102;28;38834;-75
2022/05/27 12:17:03;;;;;;;1.03;1.00;;;;;;;26.81;39.44;99277.16;5108131;28;42712;-76
2022/05/27 12:19:34;;;;;;;1.40;1.30;;;;;;;26.76;40.49;99270.56;5109840;28;42503;-74
2022/05/27 12:22:09;;;;;;;1.50;1.40;;;;;;;26.45;40.06;99268.91;5108379;28;42520;-76